Time;durP1;ratioP1;P1;durP2;ratioP2;P2;SDS_P1;SDS_P2;PMS_P1;PMS_P2;Temp;Humidity;BMP_temperature;BMP_pressure;BME280_temperature;BME280_humidity;BME280_pressure;Samples;Min_cycle;Max_cycle;Signal;HPM_P1;HPM_P2
2023/09/18 00:02:25;;;;;;;4.55;2.70;;;;;;;22.89;60.52;100162.91;4840262;29;20442;-45
2023/09/18 00:04:50;;;;;;;4.57;3.17;;;;;;;22.29;62.25;100159.19;4840328;29;20030;-43
2023/09/18 00:07:16;;;;;;;5.72;2.90;;;;;;;21.98;63.36;100159.94;4840157;29;20041;-45
2023/09/18 00:09:41;;;;;;;4.32;2.90;;;;;;;21.82;63.40;100158.31;4840383;29;20041;-45
2023/09/18 00:12:07;;;;;;;5.05;3.00;;;;;;;22.05;62.83;100160.50;4840298;29;20022;-44
2023/09/18 00:14:32;;;;;;;3.72;2.78;;;;;;;21.86;63.35;100154.78;4840172;29;20030;-43
2023/09/18 00:16:58;;;;;;;5.22;3.00;;;;;;;21.24;65.73;100152.94;4840717;29;20029;-46
2023/09/18 00:19:24;;;;;;;6.88;3.20;;;;;;;21.61;64.66;100149.31;4841090;29;20029;-43
2023/09/18 00:21:52;;;;;;;5.82;2.80;;;;;;;21.33;65.51;100151.34;4840834;29;20432;-43
2023/09/18 00:24:17;;;;;;;6.75;2.67;;;;;;;21.80;64.16;100134.19;4840961;29;20022;-43
2023/09/18 00:26:43;;;;;;;4.72;2.65;;;;;;;22.00;63.56;100144.22;4839809;29;20040;-42
2023/09/18 00:29:08;;;;;;;5.15;2.80;;;;;;;21.75;64.07;100142.31;4840631;29;20030;-44
2023/09/18 00:31:34;;;;;;;5.43;2.95;;;;;;;21.56;64.90;100152.81;4840511;29;20090;-40
2023/09/18 00:33:59;;;;;;;4.32;2.90;;;;;;;21.70;64.60;100157.72;4843234;29;20498;-42
2023/09/18 00:36:24;;;;;;;4.47;2.72;;;;;;;21.81;64.08;100156.66;4859116;29;20471;-41
2023/09/18 00:38:50;;;;;;;6.25;3.13;;;;;;;21.78;64.05;100155.31;4858922;29;20022;-46
2023/09/18 00:41:15;;;;;;;6.47;2.90;;;;;;;21.84;64.13;100156.16;4859014;29;20021;-44
2023/09/18 00:43:41;;;;;;;5.03;3.38;;;;;;;21.96;63.58;100164.00;4858854;29;20029;-45
2023/09/18 00:46:08;;;;;;;4.18;3.00;;;;;;;21.79;64.27;100148.81;4858645;29;20032;-43
2023/09/18 00:48:33;;;;;;;5.93;3.53;;;;;;;22.06;63.09;100153.97;4858718;29;20033;-43
2023/09/18 00:50:58;;;;;;;5.55;3.25;;;;;;;21.90;63.81;100152.34;4858586;29;20033;-43
2023/09/18 00:53:25;;;;;;;4.00;3.03;;;;;;;22.20;62.81;100154.28;4858608;29;20037;-42
2023/09/18 00:55:54;;;;;;;5.28;3.55;;;;;;;21.95;63.52;100154.25;4858756;29;20166;-44
2023/09/18 00:58:19;;;;;;;5.05;3.05;;;;;;;22.02;63.34;100150.19;4858477;29;20104;-45
2023/09/18 01:00:45;;;;;;;5.15;3.15;;;;;;;21.81;64.07;100143.94;4858316;29;20050;-47
2023/09/18 01:03:11;;;;;;;5.38;3.10;;;;;;;22.00;63.22;100151.56;4858582;29;20162;-44
2023/09/18 01:05:36;;;;;;;5.75;3.08;;;;;;;21.60;64.79;100145.78;4858374;29;20033;-41
2023/09/18 01:08:02;;;;;;;6.15;3.17;;;;;;;21.68;63.99;100141.75;4858626;29;20108;-43
2023/09/18 01:10:36;;;;;;;8.80;3.40;;;;;;;21.64;64.37;100146.06;4857527;29;20029;-43
2023/09/18 01:13:07;;;;;;;5.50;3.13;;;;;;;21.96;63.31;100147.75;4858685;29;20489;-42
2023/09/18 01:15:41;;;;;;;5.85;3.30;;;;;;;21.75;63.20;100142.31;4858366;29;20032;-44
2023/09/18 01:18:09;;;;;;;5.43;2.72;;;;;;;21.58;64.47;100141.72;4858309;29;20050;-43
2023/09/18 01:20:35;;;;;;;4.47;2.90;;;;;;;21.27;64.88;100155.94;4858450;29;20026;-44
2023/09/18 01:23:00;;;;;;;4.38;3.00;;;;;;;21.66;63.49;100143.91;4858762;29;20022;-46
2023/09/18 01:25:26;;;;;;;6.38;3.08;;;;;;;21.67;63.27;100146.34;4857848;29;20026;-44
2023/09/18 01:27:52;;;;;;;4.35;3.03;;;;;;;21.78;63.62;100152.63;4857940;29;20104;-43
2023/09/18 01:30:18;;;;;;;4.47;2.88;;;;;;;21.71;63.29;100146.63;4857859;29;20062;-46
2023/09/18 01:32:45;;;;;;;4.32;2.90;;;;;;;21.55;63.65;100153.91;4858018;29;20040;-45
2023/09/18 01:35:12;;;;;;;4.50;2.90;;;;;;;21.81;63.26;100145.84;4858061;29;20490;-41
2023/09/18 01:37:39;;;;;;;5.07;3.10;;;;;;;21.80;63.00;100147.75;4859755;29;20029;-43
2023/09/18 01:40:07;;;;;;;4.45;2.80;;;;;;;21.96;62.52;100148.56;4861864;29;20044;-43
2023/09/18 01:42:34;;;;;;;3.75;2.60;;;;;;;21.90;62.48;100136.09;4861867;29;20407;-43
2023/09/18 01:45:00;;;;;;;6.10;3.30;;;;;;;21.82;62.88;100152.91;4862095;29;20164;-45
2023/09/18 01:47:28;;;;;;;7.03;2.90;;;;;;;22.20;61.82;100146.16;4861514;29;20467;-46
2023/09/18 01:49:54;;;;;;;8.73;3.05;;;;;;;22.23;61.53;100151.00;4861666;29;20101;-43
2023/09/18 01:52:19;;;;;;;4.50;3.03;;;;;;;22.23;61.54;100142.88;4861439;29;20029;-43
2023/09/18 01:54:45;;;;;;;4.55;2.92;;;;;;;22.29;61.20;100151.06;4861471;29;20033;-43
2023/09/18 01:57:12;;;;;;;4.57;2.63;;;;;;;22.31;61.06;100146.97;4861568;29;20080;-44
2023/09/18 01:59:37;;;;;;;4.18;2.88;;;;;;;21.81;62.25;100148.53;4859957;29;20046;-45
2023/09/18 02:02:09;;;;;;;5.03;2.85;;;;;;;21.92;62.71;100144.78;4861511;29;20108;-47
2023/09/18 02:04:36;;;;;;;5.43;2.92;;;;;;;22.20;61.41;100145.31;4861262;29;20033;-43
2023/09/18 02:07:02;;;;;;;4.93;2.88;;;;;;;21.75;62.67;100147.72;4860907;29;20507;-47
2023/09/18 02:09:27;;;;;;;5.00;2.90;;;;;;;22.12;61.74;100148.56;4861414;29;20065;-45
2023/09/18 02:11:52;;;;;;;5.03;3.17;;;;;;;21.92;62.04;100152.09;4861480;29;20037;-44
2023/09/18 02:14:18;;;;;;;6.97;3.10;;;;;;;22.05;62.09;100148.84;4861000;29;20032;-45
2023/09/18 02:16:44;;;;;;;5.05;2.97;;;;;;;22.31;60.72;100152.41;4859961;29;20100;-44
2023/09/18 02:19:10;;;;;;;4.20;2.78;;;;;;;22.12;61.71;100162.13;4842676;29;20094;-44
2023/09/18 02:21:37;;;;;;;6.63;3.05;;;;;;;22.36;60.54;100146.19;4842813;29;20045;-47
2023/09/18 02:24:03;;;;;;;4.07;3.03;;;;;;;22.46;60.49;100151.59;4842839;29;20026;-44
2023/09/18 02:26:29;;;;;;;5.05;3.05;;;;;;;22.52;59.95;100149.69;4842685;29;20044;-48
2023/09/18 02:28:55;;;;;;;4.15;3.10;;;;;;;22.41;60.41;100151.59;4842551;29;20126;-45
2023/09/18 02:31:22;;;;;;;5.57;3.08;;;;;;;22.43;60.38;100158.38;4842744;29;20090;-40
2023/09/18 02:33:48;;;;;;;5.20;3.20;;;;;;;22.72;59.27;100148.84;4842886;29;20098;-44
2023/09/18 02:36:13;;;;;;;4.97;3.00;;;;;;;22.74;59.15;100154.81;4842975;29;20034;-46
2023/09/18 02:38:39;;;;;;;6.60;2.83;;;;;;;22.48;59.94;100149.41;4842358;29;20469;-44
2023/09/18 02:41:04;;;;;;;3.85;2.67;;;;;;;22.51;59.78;100148.06;4842346;29;20037;-44
2023/09/18 02:43:30;;;;;;;3.90;2.67;;;;;;;22.64;59.41;100159.16;4842432;29;20085;-46
2023/09/18 02:45:55;;;;;;;3.60;2.65;;;;;;;22.88;58.40;100155.84;4842265;29;20038;-42
2023/09/18 02:48:21;;;;;;;6.18;3.08;;;;;;;22.77;58.68;100156.97;4841413;29;20487;-46
2023/09/18 02:50:46;;;;;;;4.75;2.63;;;;;;;22.79;58.83;100163.75;4841944;29;20065;-44
2023/09/18 02:53:19;;;;;;;4.60;2.83;;;;;;;22.78;58.84;100159.41;4843580;29;20045;-45
2023/09/18 02:55:44;;;;;;;4.45;2.80;;;;;;;22.86;58.52;100163.44;4860609;29;20422;-42
2023/09/18 02:58:10;;;;;;;3.55;2.55;;;;;;;22.79;58.67;100169.19;4860409;29;20131;-44
2023/09/18 03:00:44;;;;;;;4.22;2.80;;;;;;;22.82;58.55;100162.38;4860385;29;20121;-44
2023/09/18 03:03:10;;;;;;;6.28;2.90;;;;;;;22.88;58.32;100155.03;4860505;29;20483;-45
2023/09/18 03:05:36;;;;;;;25.60;15.98;;;;;;;22.87;58.70;100161.56;4859931;29;20152;-41
2023/09/18 03:08:02;;;;;;;7.97;3.22;;;;;;;22.83;58.54;100161.31;4859550;29;20376;-43
2023/09/18 03:10:27;;;;;;;5.82;2.60;;;;;;;22.85;58.33;100164.56;4859748;29;20112;-46
2023/09/18 03:12:53;;;;;;;4.88;2.88;;;;;;;22.81;58.74;100172.44;4860316;29;20084;-47
2023/09/18 03:15:18;;;;;;;4.75;2.88;;;;;;;22.77;58.66;100168.66;4860179;29;20073;-44
2023/09/18 03:17:44;;;;;;;6.28;3.10;;;;;;;22.94;58.32;100170.22;4851708;29;20022;-43
2023/09/18 03:20:10;;;;;;;4.80;2.95;;;;;;;22.90;58.22;100169.94;4841171;29;20467;-42
2023/09/18 03:22:35;;;;;;;4.57;2.80;;;;;;;22.78;58.51;100172.16;4841200;29;20022;-45
2023/09/18 03:25:01;;;;;;;5.90;2.95;;;;;;;22.90;58.00;100161.00;4841229;29;20110;-42
2023/09/18 03:27:28;;;;;;;3.60;2.75;;;;;;;22.90;58.01;100169.16;4840730;29;20517;-47
2023/09/18 03:29:57;;;;;;;7.70;2.88;;;;;;;23.00;57.61;100171.84;4840543;29;20105;-43
2023/09/18 03:32:23;;;;;;;5.82;2.78;;;;;;;23.14;57.12;100161.25;4840394;29;20113;-44
2023/09/18 03:34:52;;;;;;;11.15;6.10;;;;;;;22.91;57.99;100160.72;4841047;29;20144;-44
2023/09/18 03:37:17;;;;;;;5.78;3.03;;;;;;;22.85;58.66;100161.84;4841009;29;20456;-47
2023/09/18 03:39:43;;;;;;;5.55;3.05;;;;;;;22.54;59.13;100166.50;4840530;29;20040;-47
2023/09/18 03:42:09;;;;;;;4.70;2.97;;;;;;;22.74;58.41;100161.03;4840627;29;20038;-45
2023/09/18 03:44:34;;;;;;;4.47;2.90;;;;;;;22.76;58.19;100169.72;4840696;29;20030;-44
2023/09/18 03:46:59;;;;;;;4.20;2.85;;;;;;;22.81;58.22;100174.34;4841065;29;20468;-44
2023/09/18 03:49:26;;;;;;;6.15;3.22;;;;;;;22.77;58.85;100165.94;4840892;29;20475;-45
2023/09/18 03:51:51;;;;;;;4.38;2.95;;;;;;;22.78;58.77;100169.44;4840680;29;20038;-44
2023/09/18 03:54:17;;;;;;;4.03;2.60;;;;;;;22.94;61.64;100168.34;4840630;29;20032;-43
2023/09/18 03:56:42;;;;;;;5.35;2.85;;;;;;;22.77;59.68;100173.22;4841414;29;20444;-44
2023/09/18 03:59:08;;;;;;;5.53;3.00;;;;;;;22.90;58.97;100174.56;4840624;29;20381;-46
2023/09/18 04:01:33;;;;;;;5.60;3.28;;;;;;;23.03;58.30;100172.13;4841375;29;20094;-41
2023/09/18 04:04:00;;;;;;;115.55;74.03;;;;;;;23.07;57.62;100171.56;4841396;29;20033;-44
2023/09/18 04:06:35;;;;;;;11.60;6.15;;;;;;;22.96;58.59;100181.59;4841183;29;20030;-41
2023/09/18 04:09:00;;;;;;;6.28;3.20;;;;;;;23.00;57.76;100188.94;4841189;29;20030;-43
2023/09/18 04:11:26;;;;;;;3.85;2.63;;;;;;;23.14;57.04;100177.53;4841591;29;20018;-40
2023/09/18 04:13:51;;;;;;;6.13;2.80;;;;;;;23.32;56.64;100176.09;4841697;29;20459;-41
2023/09/18 04:16:17;;;;;;;5.50;3.10;;;;;;;23.35;56.73;100183.69;4841302;29;20022;-41
2023/09/18 04:18:43;;;;;;;5.95;2.88;;;;;;;23.22;56.63;100174.22;4840959;29;20029;-43
2023/09/18 04:21:10;;;;;;;109.10;66.00;;;;;;;23.35;56.94;100183.69;4844306;29;20112;-44
2023/09/18 04:23:36;;;;;;;15.75;9.65;;;;;;;23.19;57.94;100182.94;4859263;29;20040;-45
2023/09/18 04:26:02;;;;;;;7.93;4.10;;;;;;;23.18;59.95;100184.03;4859062;29;20247;-44
2023/09/18 04:28:27;;;;;;;5.85;3.22;;;;;;;23.34;57.80;100174.75;4859115;29;20518;-44
2023/09/18 04:30:53;;;;;;;9.20;4.57;;;;;;;23.48;57.93;100176.84;4859061;29;20029;-44
2023/09/18 04:33:21;;;;;;;7.93;3.35;;;;;;;23.55;57.29;100180.06;4859152;29;20112;-45
2023/09/18 04:35:46;;;;;;;8.85;3.25;;;;;;;23.46;57.44;100174.41;4858909;29;20038;-44
2023/09/18 04:38:15;;;;;;;5.78;3.03;;;;;;;23.47;57.03;100184.16;4857300;29;20039;-42
2023/09/18 04:40:40;;;;;;;6.28;3.20;;;;;;;23.58;56.99;100183.03;4856158;29;20418;-44
2023/09/18 04:43:06;;;;;;;7.13;3.47;;;;;;;23.60;56.92;100186.28;4856366;29;20037;-43
2023/09/18 04:45:32;;;;;;;8.38;4.32;;;;;;;23.61;57.24;100185.19;4856467;29;20033;-43
2023/09/18 04:47:58;;;;;;;10.27;4.65;;;;;;;23.67;57.34;100180.56;4856071;29;20144;-43
2023/09/18 04:50:23;;;;;;;8.02;4.40;;;;;;;23.62;57.05;100186.00;4855710;29;20472;-42
2023/09/18 04:52:50;;;;;;;9.88;4.35;;;;;;;23.76;56.58;100184.31;4856220;29;20025;-44
2023/09/18 04:55:16;;;;;;;15.23;9.35;;;;;;;23.70;57.13;100169.09;4857647;29;20037;-46
2023/09/18 04:57:41;;;;;;;10.15;6.75;;;;;;;23.86;55.91;100175.31;4858410;29;20036;-42
2023/09/18 05:00:08;;;;;;;6.38;4.18;;;;;;;24.03;55.55;100183.09;4858251;29;20073;-41
2023/09/18 05:02:34;;;;;;;10.40;4.63;;;;;;;24.07;55.96;100176.00;4858120;29;20165;-43
2023/09/18 05:05:00;;;;;;;5.70;3.80;;;;;;;24.16;55.63;100184.34;4858433;29;20079;-44
2023/09/18 05:07:26;;;;;;;9.73;4.00;;;;;;;24.45;54.60;100181.66;4858203;29;20025;-43
2023/09/18 05:09:51;;;;;;;9.45;3.92;;;;;;;24.52;54.21;100173.19;4858453;29;20032;-42
2023/09/18 05:12:17;;;;;;;7.25;3.28;;;;;;;24.66;52.15;100189.69;4861490;29;20037;-46
2023/09/18 05:14:43;;;;;;;4.70;2.92;;;;;;;24.79;51.36;100172.69;4864713;29;20043;-42
2023/09/18 05:17:15;;;;;;;6.68;3.30;;;;;;;24.92;51.90;100177.44;4861067;29;20030;-44
2023/09/18 05:19:41;;;;;;;6.22;3.50;;;;;;;25.12;52.13;100186.47;4846420;29;20487;-41
2023/09/18 05:22:07;;;;;;;5.43;3.20;;;;;;;25.59;49.90;100182.13;4846424;29;20048;-43
2023/09/18 05:24:33;;;;;;;5.15;3.00;;;;;;;25.85;48.84;100181.75;4846403;29;20038;-43
2023/09/18 05:26:59;;;;;;;5.60;2.92;;;;;;;25.67;50.04;100184.19;4846173;29;20045;-43
2023/09/18 05:29:24;;;;;;;6.68;2.85;;;;;;;26.00;49.55;100178.81;4846057;29;20395;-41
2023/09/18 05:31:49;;;;;;;8.32;2.90;;;;;;;26.30;48.08;100177.53;4846049;29;20034;-43
2023/09/18 05:34:15;;;;;;;4.60;2.80;;;;;;;26.58;47.98;100177.63;4846012;29;20203;-43
2023/09/18 05:36:41;;;;;;;5.47;2.60;;;;;;;26.90;46.76;100173.22;4846143;29;20032;-45
2023/09/18 05:39:12;;;;;;;4.53;2.33;;;;;;;26.99;45.35;100173.34;4845912;29;20526;-42
2023/09/18 05:41:38;;;;;;;3.50;2.17;;;;;;;27.24;43.97;100180.22;4846059;29;20076;-42
2023/09/18 05:44:04;;;;;;;5.13;2.30;;;;;;;27.21;44.50;100167.97;4846317;29;20122;-42
2023/09/18 05:46:30;;;;;;;3.97;2.53;;;;;;;27.37;43.86;100170.44;4845574;29;20034;-44
2023/09/18 05:48:57;;;;;;;7.50;2.55;;;;;;;27.48;43.29;100171.81;4847709;29;20041;-43
2023/09/18 05:51:23;;;;;;;6.22;2.50;;;;;;;27.56;43.04;100173.03;4857907;29;20030;-46
2023/09/18 05:53:49;;;;;;;4.18;2.55;;;;;;;27.57;43.27;100175.47;4858164;29;20129;-47
2023/09/18 05:56:17;;;;;;;5.30;2.53;;;;;;;27.30;43.77;100177.13;4865404;29;20104;-45
2023/09/18 05:58:42;;;;;;;7.80;2.55;;;;;;;26.97;44.95;100181.03;4864320;29;20117;-46
2023/09/18 06:01:07;;;;;;;4.55;2.60;;;;;;;26.76;44.78;100181.41;4862556;29;20503;-44
2023/09/18 06:03:35;;;;;;;4.13;2.45;;;;;;;26.39;45.77;100185.03;4864202;29;20063;-42
2023/09/18 06:06:04;;;;;;;3.58;2.70;;;;;;;25.93;46.66;100184.66;4864087;29;20041;-43
2023/09/18 06:08:30;;;;;;;4.15;2.60;;;;;;;25.43;48.25;100186.13;4861147;29;20092;-43
2023/09/18 06:10:56;;;;;;;4.03;2.58;;;;;;;25.30;48.67;100177.59;4861632;29;20088;-44
2023/09/18 06:13:24;;;;;;;5.82;2.60;;;;;;;25.07;49.25;100190.06;4856700;29;20455;-43
2023/09/18 06:15:52;;;;;;;5.82;2.63;;;;;;;25.15;49.39;100194.06;4850728;29;20106;-48
2023/09/18 06:18:20;;;;;;;5.60;2.58;;;;;;;25.66;48.42;100198.09;4854147;29;20026;-42
2023/09/18 06:20:46;;;;;;;4.95;2.47;;;;;;;26.02;46.94;100203.06;4862320;29;20029;-42
2023/09/18 06:23:12;;;;;;;5.78;2.58;;;;;;;25.91;47.26;100203.22;4853952;29;20026;-43
2023/09/18 06:25:38;;;;;;;4.13;2.50;;;;;;;26.10;46.89;100202.41;4857480;29;20032;-45
2023/09/18 06:28:04;;;;;;;5.28;2.45;;;;;;;26.49;45.60;100199.31;4856316;29;20037;-43
2023/09/18 06:30:34;;;;;;;4.82;2.50;;;;;;;26.48;45.43;100202.34;4853869;29;20159;-42
2023/09/18 06:33:03;;;;;;;6.82;2.60;;;;;;;26.42;45.68;100207.06;4859377;29;20067;-43
2023/09/18 06:35:29;;;;;;;3.40;2.40;;;;;;;26.47;45.48;100209.72;4856105;29;20029;-45
2023/09/18 06:37:58;;;;;;;3.42;2.40;;;;;;;26.54;44.95;100206.63;4858924;29;20085;-43
2023/09/18 06:40:25;;;;;;;4.38;2.70;;;;;;;26.58;45.27;100198.63;4858623;29;20104;-42
2023/09/18 06:42:51;;;;;;;5.38;2.53;;;;;;;26.71;45.05;100201.44;4860739;29;20098;-41
2023/09/18 06:45:17;;;;;;;5.28;2.47;;;;;;;26.82;44.67;100203.97;4860536;29;20026;-45
2023/09/18 06:47:42;;;;;;;4.85;2.47;;;;;;;26.93;45.08;100205.41;4861072;29;20475;-46
2023/09/18 06:50:09;;;;;;;4.68;2.60;;;;;;;27.07;44.38;100198.03;4860179;29;20078;-42
2023/09/18 06:52:34;;;;;;;6.70;3.00;;;;;;;27.23;44.09;100205.94;4860751;29;20033;-43
2023/09/18 06:54:59;;;;;;;5.05;2.80;;;;;;;26.79;44.90;100205.38;4861031;29;20021;-43
2023/09/18 06:57:25;;;;;;;4.93;2.80;;;;;;;27.22;44.37;100201.56;4860877;29;20029;-43
2023/09/18 06:59:51;;;;;;;5.25;2.92;;;;;;;27.76;44.02;100208.13;4842385;29;20109;-41
2023/09/18 07:02:16;;;;;;;3.22;2.50;;;;;;;28.31;42.05;100200.84;4842385;29;20045;-45
2023/09/18 07:04:45;;;;;;;4.75;2.75;;;;;;;28.46;41.56;100201.31;4842469;29;20029;-43
2023/09/18 07:07:14;;;;;;;4.03;2.67;;;;;;;28.87;40.88;100193.16;4842383;29;20380;-42
2023/09/18 07:09:42;;;;;;;;;;;;;;;29.50;39.58;100193.88;4842873;29;20026;-42
2023/09/18 07:12:09;;;;;;;4.68;2.80;;;;;;;29.67;38.51;100190.34;4852541;29;19916;-43
2023/09/18 07:14:35;;;;;;;5.03;2.42;;;;;;;28.97;38.71;100190.13;4860290;29;20056;-43
2023/09/18 07:17:02;;;;;;;3.60;2.13;;;;;;;29.01;38.19;100191.13;4860084;29;20500;-46
2023/09/18 07:19:27;;;;;;;3.90;2.38;;;;;;;29.17;38.27;100199.75;4860690;29;20025;-46
2023/09/18 07:21:52;;;;;;;6.13;2.40;;;;;;;29.07;38.05;100200.81;4860499;29;20048;-44
2023/09/18 07:24:20;;;;;;;5.30;2.20;;;;;;;29.22;38.19;100197.66;4860706;29;20048;-45
2023/09/18 07:26:46;;;;;;;3.85;2.20;;;;;;;29.37;38.77;100201.91;4860785;29;20035;-45
2023/09/18 07:29:13;;;;;;;4.00;2.47;;;;;;;29.70;38.09;100200.66;4860430;29;20021;-42
2023/09/18 07:31:40;;;;;;;3.88;2.13;;;;;;;29.76;38.64;100202.97;4860423;29;20025;-43
2023/09/18 07:34:06;;;;;;;3.30;2.10;;;;;;;30.38;37.11;100210.06;4860446;29;20033;-47
2023/09/18 07:36:31;;;;;;;3.97;2.35;;;;;;;29.92;37.12;100200.56;4859604;29;20121;-45
2023/09/18 07:38:57;;;;;;;4.38;2.75;;;;;;;29.60;37.86;100199.03;4860101;29;20025;-46
2023/09/18 07:41:23;;;;;;;4.72;2.30;;;;;;;29.82;37.08;100207.16;4860411;29;20466;-44
2023/09/18 07:43:48;;;;;;;3.88;2.25;;;;;;;29.12;38.24;100206.16;4857749;29;20056;-42
2023/09/18 07:46:14;;;;;;;3.92;2.42;;;;;;;29.56;37.48;100207.09;4858833;29;20489;-43
2023/09/18 07:48:39;;;;;;;3.72;2.38;;;;;;;29.31;37.75;100210.59;4859968;29;20089;-46
2023/09/18 07:51:05;;;;;;;10.73;2.22;;;;;;;29.59;37.49;100202.94;4860295;29;20026;-46
2023/09/18 07:53:32;;;;;;;2.80;2.08;;;;;;;29.83;36.52;100207.97;4850592;29;20021;-43
2023/09/18 07:55:58;;;;;;;2.63;1.90;;;;;;;30.44;35.82;100204.41;4852445;29;20067;-46
2023/09/18 07:58:27;;;;;;;2.92;2.10;;;;;;;31.18;35.40;100203.22;4851465;29;20503;-43
2023/09/18 08:00:53;;;;;;;;;;;;;;;31.80;33.93;100201.72;4856709;29;20091;-45
2023/09/18 08:03:19;;;;;;;3.08;1.92;;;;;;;32.56;33.22;100197.00;4845237;29;19913;-43
2023/09/18 08:05:45;;;;;;;4.53;2.05;;;;;;;32.52;32.59;100198.84;4840615;29;20048;-45
2023/09/18 08:08:10;;;;;;;5.00;2.30;;;;;;;32.58;31.92;100196.69;4848237;29;20129;-44
2023/09/18 08:10:39;;;;;;;4.32;2.20;;;;;;;31.84;32.91;100202.66;4849626;29;20104;-44
2023/09/18 08:13:04;;;;;;;4.07;2.15;;;;;;;30.86;34.33;100196.38;4848334;29;20463;-42
2023/09/18 08:15:30;;;;;;;4.05;2.20;;;;;;;29.90;35.19;100191.84;4850265;29;20045;-46
2023/09/18 08:17:55;;;;;;;2.95;2.10;;;;;;;29.67;36.66;100193.91;4851968;29;20029;-45
2023/09/18 08:20:20;;;;;;;6.15;2.15;;;;;;;28.70;37.88;100189.22;4850311;29;20380;-42
2023/09/18 08:22:48;;;;;;;2.33;2.00;;;;;;;29.32;37.49;100193.84;4850245;29;20032;-44
2023/09/18 08:25:13;;;;;;;3.03;2.17;;;;;;;29.90;36.14;100180.06;4849564;29;20032;-44
2023/09/18 08:27:44;;;;;;;2.45;2.00;;;;;;;30.13;35.77;100184.25;4847686;29;20041;-43
2023/09/18 08:30:11;;;;;;;2.90;2.00;;;;;;;29.51;36.48;100181.78;4849878;29;20029;-43
2023/09/18 08:32:38;;;;;;;3.58;2.10;;;;;;;28.65;37.88;100172.91;4848483;29;20071;-45
2023/09/18 08:35:04;;;;;;;3.22;2.10;;;;;;;28.13;38.67;100178.84;4843711;29;20060;-40
2023/09/18 08:37:30;;;;;;;3.30;2.00;;;;;;;28.45;38.02;100182.44;4855390;29;20025;-42
2023/09/18 08:39:55;;;;;;;2.88;2.00;;;;;;;28.62;37.67;100189.97;4857842;29;20029;-41
2023/09/18 08:42:22;;;;;;;2.30;2.10;;;;;;;27.84;38.71;100181.97;4849602;29;20563;-40
2023/09/18 08:44:50;;;;;;;3.38;1.85;;;;;;;28.47;38.46;100169.25;4839407;29;20036;-43
2023/09/18 08:47:18;;;;;;;4.15;1.95;;;;;;;29.06;36.97;100174.56;4840379;29;20145;-42
2023/09/18 08:49:48;;;;;;;2.90;2.00;;;;;;;29.39;36.01;100174.19;4855746;29;20483;-45
2023/09/18 08:52:15;;;;;;;2.65;2.08;;;;;;;29.55;36.03;100164.38;4857319;29;20026;-44
2023/09/18 08:54:43;;;;;;;2.83;2.00;;;;;;;29.36;36.83;100172.88;4857188;29;20033;-43
2023/09/18 08:57:09;;;;;;;2.60;2.10;;;;;;;29.69;35.50;100172.44;4857752;29;20426;-41
2023/09/18 08:59:38;;;;;;;2.85;1.90;;;;;;;30.15;34.86;100159.22;4857756;29;20084;-44
2023/09/18 09:02:04;;;;;;;4.70;2.03;;;;;;;30.16;34.57;100174.59;4857907;29;20041;-39
2023/09/18 09:04:29;;;;;;;3.67;2.03;;;;;;;29.41;35.31;100167.25;4857505;29;20037;-42
2023/09/18 09:06:59;;;;;;;3.38;2.10;;;;;;;29.91;34.09;100160.56;4845149;29;20030;-41
2023/09/18 09:09:26;;;;;;;3.17;1.92;;;;;;;29.60;34.55;100161.47;4839583;29;20038;-41
2023/09/18 09:11:52;;;;;;;4.07;1.98;;;;;;;30.24;33.70;100161.97;4839187;29;20418;-42
2023/09/18 09:14:21;;;;;;;2.80;2.30;;;;;;;30.70;33.14;100152.19;4838989;29;20103;-45
2023/09/18 09:16:51;;;;;;;4.22;2.53;;;;;;;30.38;33.66;100146.94;4839922;29;20168;-46
2023/09/18 09:19:18;;;;;;;3.10;2.00;;;;;;;30.39;33.71;100143.06;4855591;29;20495;-42
2023/09/18 09:21:44;;;;;;;2.90;2.10;;;;;;;30.25;34.18;100150.66;4857494;29;20066;-40
2023/09/18 09:24:15;;;;;;;3.00;2.28;;;;;;;30.06;34.67;100151.00;4857318;29;20033;-41
2023/09/18 09:26:42;;;;;;;3.70;2.25;;;;;;;30.20;34.54;100142.59;4857810;29;20112;-44
2023/09/18 09:29:19;;;;;;;2.65;2.30;;;;;;;30.52;35.39;100146.75;4857332;29;20022;-41
2023/09/18 09:31:45;;;;;;;4.35;2.20;;;;;;;30.81;34.55;100147.94;4857102;29;20128;-43
2023/09/18 09:34:11;;;;;;;2.67;2.05;;;;;;;29.59;34.58;100148.09;4857150;29;20089;-41
2023/09/18 09:36:52;;;;;;;2.63;2.40;;;;;;;29.67;35.01;100151.97;4843287;29;20030;-43
2023/09/18 09:39:21;;;;;;;3.63;2.20;;;;;;;29.15;36.18;100145.28;4839299;29;20492;-50
2023/09/18 09:41:48;;;;;;;3.13;2.33;;;;;;;29.01;36.90;100145.34;4847402;29;20044;-43
2023/09/18 09:44:14;;;;;;;3.67;2.10;;;;;;;30.51;35.04;100144.34;4858131;29;20034;-40
2023/09/18 09:46:48;;;;;;;4.10;2.33;;;;;;;31.64;33.49;100145.72;4857301;29;20041;-50
2023/09/18 09:49:15;;;;;;;2.40;2.10;;;;;;;31.64;33.00;100145.72;4857915;29;20034;-47
2023/09/18 09:51:41;;;;;;;4.15;2.10;;;;;;;32.31;31.99;100136.38;4857719;29;20513;-40
2023/09/18 09:54:07;;;;;;;5.07;2.47;;;;;;;32.37;31.12;100139.72;4858487;29;20191;-42
2023/09/18 09:56:50;;;;;;;3.15;2.30;;;;;;;31.77;30.92;100137.16;4857772;29;20502;-44
2023/09/18 09:59:18;;;;;;;2.80;2.15;;;;;;;30.48;32.95;100128.50;4855645;29;20053;-41
2023/09/18 10:01:48;;;;;;;4.85;2.47;;;;;;;30.01;33.36;100130.03;4843095;29;20427;-44
2023/09/18 10:04:19;;;;;;;4.13;2.20;;;;;;;29.94;33.24;100128.91;4843080;29;20037;-43
2023/09/18 10:06:51;;;;;;;4.95;2.33;;;;;;;29.38;34.62;100126.78;4848407;29;20428;-43
2023/09/18 10:09:19;;;;;;;4.95;2.33;;;;;;;29.57;34.18;100122.94;4861521;29;20053;-44
2023/09/18 10:11:48;;;;;;;4.15;2.40;;;;;;;30.22;33.97;100121.13;4861392;29;20108;-42
2023/09/18 10:14:20;;;;;;;2.85;2.20;;;;;;;31.09;32.57;100123.59;4861585;29;20028;-41
2023/09/18 10:16:50;;;;;;;5.47;2.88;;;;;;;31.48;31.33;100127.06;4861223;29;20033;-43
2023/09/18 10:19:40;;;;;;;2.92;2.10;;;;;;;30.71;31.69;100123.56;4842458;29;20038;-42
2023/09/18 10:22:12;;;;;;;3.13;2.13;;;;;;;30.15;32.83;100118.88;4842740;29;20018;-41
2023/09/18 10:24:41;;;;;;;3.58;2.20;;;;;;;30.56;32.43;100111.22;4842928;29;20041;-42
2023/09/18 10:27:08;;;;;;;4.57;2.72;;;;;;;30.80;31.74;100113.34;4842276;29;20034;-42
2023/09/18 10:29:36;;;;;;;4.97;2.30;;;;;;;30.76;32.08;100107.72;4842018;29;20116;-41
2023/09/18 10:32:09;;;;;;;2.45;2.05;;;;;;;30.64;31.71;100104.06;4840558;29;20030;-43
2023/09/18 10:34:36;;;;;;;3.30;2.15;;;;;;;30.74;32.36;100092.72;4842235;29;20507;-42
2023/09/18 10:37:09;;;;;;;4.03;2.45;;;;;;;30.26;31.84;100099.34;4842349;29;20025;-43
2023/09/18 10:39:36;;;;;;;4.15;2.20;;;;;;;30.67;31.73;100090.47;4841368;29;20487;-44
2023/09/18 10:42:03;;;;;;;3.30;2.35;;;;;;;30.94;31.58;100086.50;4845381;29;20372;-43
2023/09/18 10:44:31;;;;;;;3.20;2.15;;;;;;;30.88;31.67;100081.47;4851536;29;20029;-44
2023/09/18 10:46:58;;;;;;;5.50;2.38;;;;;;;31.44;30.67;100073.06;4856136;29;20048;-42
2023/09/18 10:49:24;;;;;;;3.80;2.10;;;;;;;31.08;30.36;100078.00;4860549;29;20101;-42
2023/09/18 10:51:53;;;;;;;3.00;2.03;;;;;;;31.25;30.85;100076.28;4860535;29;20120;-45
2023/09/18 10:54:25;;;;;;;2.30;2.10;;;;;;;31.61;30.00;100074.91;4855560;29;20056;-44
2023/09/18 10:56:52;;;;;;;5.05;2.30;;;;;;;31.81;29.56;100073.25;4849990;29;20076;-42
2023/09/18 10:59:18;;;;;;;4.28;2.30;;;;;;;30.50;31.65;100074.06;4850809;29;20049;-41
2023/09/18 11:01:45;;;;;;;2.53;2.13;;;;;;;30.18;31.58;100076.28;4851915;29;20033;-40
2023/09/18 11:04:14;;;;;;;2.60;2.17;;;;;;;29.88;31.69;100070.69;4850499;29;20053;-40
2023/09/18 11:06:54;;;;;;;4.22;2.13;;;;;;;29.38;32.27;100071.19;4851578;29;20467;-44
2023/09/18 11:09:22;;;;;;;3.00;1.95;;;;;;;29.85;32.55;100063.09;4853298;29;20487;-41
2023/09/18 11:11:56;;;;;;;2.70;2.15;;;;;;;30.23;31.76;100056.88;4849186;29;20068;-41
2023/09/18 11:14:22;;;;;;;2.15;1.95;;;;;;;29.84;30.92;100066.97;4851637;29;20532;-43
2023/09/18 11:16:49;;;;;;;2.83;1.90;;;;;;;29.31;31.96;100062.63;4852283;29;20037;-44
2023/09/18 11:19:19;;;;;;;2.05;1.85;;;;;;;29.93;31.62;100053.22;4855083;29;20124;-43
2023/09/18 11:21:45;;;;;;;2.78;1.98;;;;;;;30.98;30.74;100045.44;4853263;29;20095;-42
2023/09/18 11:24:20;;;;;;;3.60;2.00;;;;;;;31.51;29.25;100046.66;4853609;29;20100;-42